createdAt,value
2023-02-08T00:01:14.414Z,-1.19
2023-02-08T00:03:42.280Z,-1.17
2023-02-08T00:06:10.815Z,-1.16
2023-02-08T00:08:39.077Z,-1.15
2023-02-08T00:11:07.551Z,-1.15
2023-02-08T00:13:36.663Z,-1.14
2023-02-08T00:16:05.088Z,-1.15
2023-02-08T00:18:33.045Z,-1.16
2023-02-08T00:21:00.848Z,-1.18
2023-02-08T00:23:28.892Z,-1.22
2023-02-08T00:25:56.635Z,-1.22
2023-02-08T00:28:24.432Z,-1.25
2023-02-08T00:30:53.610Z,-1.27
2023-02-08T00:33:21.358Z,-1.32
2023-02-08T00:35:49.123Z,-1.33
2023-02-08T00:38:16.940Z,-1.34
2023-02-08T00:40:44.683Z,-1.36
2023-02-08T00:43:12.430Z,-1.36
2023-02-08T00:45:40.179Z,-1.37
2023-02-08T00:48:09.370Z,-1.37
2023-02-08T00:50:37.136Z,-1.35
2023-02-08T00:53:05.285Z,-1.35
2023-02-08T00:55:33.015Z,-1.35
2023-02-08T00:58:00.799Z,-1.34
2023-02-08T01:00:28.612Z,-1.32
2023-02-08T01:02:56.392Z,-1.32
2023-02-08T01:05:25.552Z,-1.31
2023-02-08T01:07:53.310Z,-1.31
2023-02-08T01:10:21.114Z,-1.31
2023-02-08T01:12:48.867Z,-1.31
2023-02-08T01:15:16.663Z,-1.29
2023-02-08T01:17:44.586Z,-1.30
2023-02-08T01:20:12.843Z,-1.28
2023-02-08T01:22:42.009Z,-1.28
2023-02-08T01:25:10.390Z,-1.27
2023-02-08T01:27:38.134Z,-1.26
2023-02-08T01:30:07.004Z,-1.25
2023-02-08T01:32:34.778Z,-1.24
2023-02-08T01:35:02.510Z,-1.21
2023-02-08T01:37:30.360Z,-1.20
2023-02-08T01:39:59.549Z,-1.20
2023-02-08T01:42:27.497Z,-1.19
2023-02-08T01:45:30.046Z,-1.21
2023-02-08T01:48:11.833Z,-1.21
2023-02-08T01:50:47.931Z,-1.20
2023-02-08T01:53:15.899Z,-1.21
2023-02-08T01:55:49.229Z,-1.19
2023-02-08T01:58:19.177Z,-1.18
2023-02-08T02:00:48.011Z,-1.18
2023-02-08T02:03:16.570Z,-1.17
2023-02-08T02:05:46.739Z,-1.19
2023-02-08T02:08:14.931Z,-1.20
2023-02-08T02:10:43.559Z,-1.22
2023-02-08T02:13:16.254Z,-1.19
2023-02-08T02:15:46.322Z,-1.19
2023-02-08T02:18:20.335Z,-1.16
2023-02-08T02:21:02.254Z,-1.17
2023-02-08T02:23:56.436Z,-1.18
2023-02-08T02:27:09.110Z,-1.20
2023-02-08T02:30:25.940Z,-1.25
2023-02-08T02:33:09.331Z,-1.27
2023-02-08T02:35:47.569Z,-1.29
2023-02-08T02:38:28.935Z,-1.28
2023-02-08T02:41:07.251Z,-1.27
2023-02-08T02:43:46.152Z,-1.26
2023-02-08T02:46:25.322Z,-1.26
2023-02-08T02:49:03.202Z,-1.25
2023-02-08T02:51:39.682Z,-1.26
2023-02-08T02:54:12.623Z,-1.24
2023-02-08T02:56:43.917Z,-1.24
2023-02-08T02:59:13.285Z,-1.27
2023-02-08T03:01:43.009Z,-1.28
2023-02-08T03:04:16.443Z,-1.28
2023-02-08T03:07:00.048Z,-1.31
2023-02-08T03:09:53.234Z,-1.30
2023-02-08T03:12:37.056Z,-1.28
2023-02-08T03:15:15.184Z,-1.28
2023-02-08T03:17:57.078Z,-1.26
2023-02-08T03:20:29.087Z,-1.27
2023-02-08T03:23:04.888Z,-1.29
2023-02-08T03:25:38.487Z,-1.28
2023-02-08T03:28:12.817Z,-1.30
2023-02-08T03:30:51.257Z,-1.32
2023-02-08T03:33:26.113Z,-1.35
2023-02-08T03:36:00.857Z,-1.37
2023-02-08T03:38:32.910Z,-1.36
2023-02-08T03:41:05.523Z,-1.37
2023-02-08T03:43:37.691Z,-1.35
2023-02-08T03:46:11.388Z,-1.36
2023-02-08T03:48:40.227Z,-1.38
2023-02-08T03:51:11.014Z,-1.38
2023-02-08T03:53:40.603Z,-1.38
2023-02-08T03:56:15.864Z,-1.38
2023-02-08T03:58:49.112Z,-1.41
2023-02-08T04:01:24.103Z,-1.44
2023-02-08T04:03:54.646Z,-1.47
2023-02-08T04:06:24.563Z,-1.49
2023-02-08T04:08:52.751Z,-1.50
2023-02-08T04:11:20.571Z,-1.52
2023-02-08T04:13:48.305Z,-1.54
2023-02-08T04:16:16.035Z,-1.54
2023-02-08T04:18:43.800Z,-1.57
2023-02-08T04:21:11.532Z,-1.58
2023-02-08T04:23:40.614Z,-1.59
2023-02-08T04:26:08.830Z,-1.60
2023-02-08T04:28:36.746Z,-1.60
2023-02-08T04:31:04.842Z,-1.62
2023-02-08T04:33:32.680Z,-1.61
2023-02-08T04:36:00.452Z,-1.63
2023-02-08T04:38:28.271Z,-1.64
2023-02-08T04:40:57.407Z,-1.63
2023-02-08T04:43:25.168Z,-1.65
2023-02-08T04:45:53.428Z,-1.67
2023-02-08T04:48:21.209Z,-1.69
2023-02-08T04:50:49.253Z,-1.69
2023-02-08T04:53:17.037Z,-1.70
2023-02-08T04:55:44.766Z,-1.71
2023-02-08T04:58:13.857Z,-1.71
2023-02-08T05:00:41.943Z,-1.72
2023-02-08T05:03:10.255Z,-1.75
2023-02-08T05:05:38.131Z,-1.79
2023-02-08T05:08:06.525Z,-1.78
2023-02-08T05:10:34.376Z,-1.80
2023-02-08T05:13:02.192Z,-1.80
2023-02-08T05:15:31.259Z,-1.80
2023-02-08T05:17:59.056Z,-1.81
2023-02-08T05:20:26.813Z,-1.82
2023-02-08T05:22:54.537Z,-1.83
2023-02-08T05:25:22.270Z,-1.84
2023-02-08T05:27:50.069Z,-1.83
2023-02-08T05:30:18.048Z,-1.85
2023-02-08T05:32:47.169Z,-1.84
2023-02-08T05:35:14.930Z,-1.83
2023-02-08T05:37:42.691Z,-1.82
2023-02-08T05:40:13.193Z,-1.81
2023-02-08T05:42:42.371Z,-1.82
2023-02-08T05:45:10.614Z,-1.84
2023-02-08T05:47:38.325Z,-1.85
2023-02-08T05:50:07.765Z,-1.87
2023-02-08T05:52:35.460Z,-1.87
2023-02-08T05:55:03.247Z,-1.89
2023-02-08T05:57:32.304Z,-1.90
2023-02-08T06:00:00.859Z,-1.94
2023-02-08T06:02:28.612Z,-1.97
2023-02-08T06:04:56.330Z,-1.98
2023-02-08T06:07:25.471Z,-2.03
2023-02-08T06:09:53.247Z,-2.05
2023-02-08T06:12:21.087Z,-2.06
2023-02-08T06:14:48.879Z,-2.08
2023-02-08T06:17:16.800Z,-2.09
2023-02-08T06:19:44.609Z,-2.09
2023-02-08T06:22:12.391Z,-2.11
2023-02-08T06:24:41.563Z,-2.12
2023-02-08T06:27:09.574Z,-2.12
2023-02-08T06:29:37.281Z,-2.13
2023-02-08T06:32:05.338Z,-2.14
2023-02-08T06:34:33.192Z,-2.18
2023-02-08T06:37:02.273Z,-2.16
2023-02-08T06:39:30.634Z,-2.13
2023-02-08T06:41:59.827Z,-2.15
2023-02-08T06:44:27.962Z,-2.15
2023-02-08T06:46:55.742Z,-2.16
2023-02-08T06:49:23.625Z,-2.14
2023-02-08T06:51:51.372Z,-2.13
2023-02-08T06:54:19.304Z,-2.12
2023-02-08T06:56:47.119Z,-2.11
2023-02-08T06:59:16.329Z,-2.11
2023-02-08T07:01:44.128Z,-2.11
2023-02-08T07:04:11.918Z,-2.11
2023-02-08T07:06:39.820Z,-2.12
2023-02-08T07:09:07.551Z,-2.15
2023-02-08T07:11:35.314Z,-2.17
2023-02-08T07:14:03.132Z,-2.19
2023-02-08T07:16:32.354Z,-2.23
2023-02-08T07:19:00.116Z,-2.25
2023-02-08T07:21:27.895Z,-2.26
2023-02-08T07:23:55.795Z,-2.26
2023-02-08T07:26:23.548Z,-2.26
2023-02-08T07:28:51.325Z,-2.28
2023-02-08T07:31:19.382Z,-2.29
2023-02-08T07:33:48.469Z,-2.28
2023-02-08T07:36:16.510Z,-2.28
2023-02-08T07:38:44.241Z,-2.28
2023-02-08T07:41:14.111Z,-2.28
2023-02-08T07:43:43.029Z,-2.26
2023-02-08T07:46:13.200Z,-2.26
2023-02-08T07:48:41.080Z,-2.24
2023-02-08T07:51:11.385Z,-2.22
2023-02-08T07:53:39.616Z,-2.22
2023-02-08T07:56:07.887Z,-2.20
2023-02-08T07:58:35.662Z,-2.19
2023-02-08T08:01:16.120Z,-2.20
2023-02-08T08:03:47.816Z,-2.16
2023-02-08T08:06:16.985Z,-2.17
2023-02-08T08:08:47.375Z,-2.17
2023-02-08T08:11:15.387Z,-2.16
2023-02-08T08:13:43.316Z,-2.15
2023-02-08T08:16:11.717Z,-2.12
2023-02-08T08:18:39.760Z,-2.07
2023-02-08T08:21:08.156Z,-2.05
2023-02-08T08:23:37.688Z,-2.02
2023-02-08T08:26:10.342Z,-2.01
2023-02-08T08:28:38.804Z,-1.99
2023-02-08T08:31:11.295Z,-1.97
2023-02-08T08:33:39.199Z,-1.94
2023-02-08T08:36:07.651Z,-1.90
2023-02-08T08:38:35.548Z,-1.87
2023-02-08T08:41:08.442Z,-1.84
2023-02-08T08:43:36.204Z,-1.78
2023-02-08T08:46:05.900Z,-1.73
2023-02-08T08:48:34.166Z,-1.65
2023-02-08T08:51:01.908Z,-1.59
2023-02-08T08:53:29.875Z,-1.55
2023-02-08T08:55:57.697Z,-1.47
2023-02-08T08:58:26.840Z,-1.39
2023-02-08T09:00:55.284Z,-1.28
2023-02-08T09:03:23.097Z,-1.20
2023-02-08T09:05:50.838Z,-1.13
2023-02-08T09:08:18.584Z,-1.05
2023-02-08T09:10:46.344Z,-0.96
2023-02-08T09:13:19.315Z,-0.88
2023-02-08T09:15:49.181Z,-0.81
2023-02-08T09:18:17.186Z,-0.73
2023-02-08T09:20:45.365Z,-0.65
2023-02-08T09:23:14.600Z,-0.57
2023-02-08T09:25:42.405Z,-0.50
2023-02-08T09:28:10.290Z,-0.41
2023-02-08T09:30:38.119Z,-0.32
2023-02-08T09:33:07.297Z,-0.22
2023-02-08T09:35:34.977Z,-0.17
2023-02-08T09:38:04.600Z,-0.07
2023-02-08T09:40:39.401Z,0.01
2023-02-08T09:43:13.957Z,0.10
2023-02-08T09:45:59.334Z,0.20
2023-02-08T09:48:32.716Z,0.30
2023-02-08T09:51:05.777Z,0.42
2023-02-08T09:53:37.863Z,0.52
2023-02-08T09:56:07.912Z,0.60
2023-02-08T09:58:40.660Z,0.67
2023-02-08T10:01:18.656Z,0.76
2023-02-08T10:03:49.735Z,0.88
2023-02-08T10:06:19.875Z,0.95
2023-02-08T10:08:51.438Z,1.04
2023-02-08T10:11:44.342Z,1.12
2023-02-08T10:14:49.448Z,1.23
2023-02-08T10:17:37.361Z,1.34
2023-02-08T10:20:15.618Z,1.44
2023-02-08T10:22:50.691Z,1.52
2023-02-08T10:25:32.436Z,1.60
2023-02-08T10:28:17.693Z,1.71
2023-02-08T10:30:52.714Z,1.79
2023-02-08T10:33:26.445Z,1.85
2023-02-08T10:35:56.246Z,1.92
2023-02-08T10:38:37.192Z,2.00
2023-02-08T10:41:10.271Z,2.06
2023-02-08T10:43:44.465Z,2.14
2023-02-08T10:46:21.891Z,2.23
2023-02-08T10:49:01.427Z,2.32
2023-02-08T10:51:31.732Z,2.39
2023-02-08T10:53:59.726Z,2.48
2023-02-08T10:56:51.725Z,2.58
2023-02-08T10:59:23.044Z,2.68
2023-02-08T11:01:51.874Z,2.76
2023-02-08T11:04:19.956Z,2.85
2023-02-08T11:06:51.783Z,2.95
2023-02-08T11:09:29.122Z,3.05
2023-02-08T11:11:58.798Z,3.13
2023-02-08T11:14:44.636Z,3.20
2023-02-08T11:17:27.009Z,3.30
2023-02-08T11:19:55.370Z,3.36
2023-02-08T11:22:27.434Z,3.43
2023-02-08T11:24:58.982Z,3.48
2023-02-08T11:27:35.474Z,3.54
2023-02-08T11:30:21.366Z,3.58
2023-02-08T11:32:51.050Z,3.62
2023-02-08T11:35:23.030Z,3.64
2023-02-08T11:37:54.761Z,3.67
2023-02-08T11:40:25.674Z,3.72
2023-02-08T11:42:54.177Z,3.81
2023-02-08T11:45:24.751Z,3.86
2023-02-08T11:47:53.713Z,3.93
2023-02-08T11:50:26.300Z,4.02
2023-02-08T11:53:00.069Z,4.11
2023-02-08T11:55:28.674Z,4.17
2023-02-08T11:58:01.075Z,4.26
2023-02-08T12:00:31.252Z,4.32
2023-02-08T12:03:01.694Z,4.32
2023-02-08T12:05:41.578Z,4.36
2023-02-08T12:08:23.187Z,4.38
2023-02-08T12:11:13.574Z,4.40
2023-02-08T12:14:09.559Z,4.45
2023-02-08T12:17:01.720Z,4.53
2023-02-08T12:19:55.896Z,4.54
2023-02-08T12:22:26.553Z,4.53
2023-02-08T12:25:11.337Z,4.55
2023-02-08T12:27:44.374Z,4.61
2023-02-08T12:30:22.482Z,4.65
2023-02-08T12:33:12.305Z,4.68
2023-02-08T12:36:03.724Z,4.73
2023-02-08T12:39:19.074Z,4.78
2023-02-08T12:41:53.468Z,4.84
2023-02-08T12:44:33.897Z,4.89
2023-02-08T12:47:12.587Z,4.94
2023-02-08T12:49:55.250Z,4.97
2023-02-08T12:52:34.234Z,4.97
2023-02-08T12:55:06.635Z,4.98
2023-02-08T12:57:36.341Z,4.98
2023-02-08T13:00:07.321Z,4.99
2023-02-08T13:02:44.505Z,5.01
2023-02-08T13:05:18.752Z,5.02
2023-02-08T13:07:50.617Z,5.07
2023-02-08T13:10:26.873Z,5.08
2023-02-08T13:12:59.744Z,5.09
2023-02-08T13:15:36.288Z,5.06
2023-02-08T13:18:13.240Z,5.10
2023-02-08T13:20:45.813Z,5.11
2023-02-08T13:23:21.601Z,5.11
2023-02-08T13:25:51.852Z,5.11
2023-02-08T13:28:23.686Z,5.13
2023-02-08T13:30:58.243Z,5.11
2023-02-08T13:33:33.887Z,5.16
2023-02-08T13:36:02.165Z,5.15
2023-02-08T13:38:32.692Z,5.17
2023-02-08T13:41:08.143Z,5.17
2023-02-08T13:43:45.090Z,5.15
2023-02-08T13:46:13.679Z,5.14
2023-02-08T13:48:45.083Z,5.11
2023-02-08T13:51:53.207Z,5.10
2023-02-08T13:54:21.335Z,5.07
2023-02-08T13:56:51.238Z,5.04
2023-02-08T13:59:36.167Z,5.02
2023-02-08T14:02:29.299Z,5.01
2023-02-08T14:05:30.410Z,4.98
2023-02-08T14:08:00.431Z,5.00
2023-02-08T14:10:37.488Z,4.96
2023-02-08T14:13:09.526Z,4.95
2023-02-08T14:15:40.776Z,4.93
2023-02-08T14:18:27.690Z,4.91
2023-02-08T14:21:07.236Z,4.89
2023-02-08T14:23:40.585Z,4.89
2023-02-08T14:26:11.629Z,4.90
2023-02-08T14:28:44.934Z,4.89
2023-02-08T14:31:16.677Z,4.86
2023-02-08T14:33:53.365Z,4.86
2023-02-08T14:36:29.847Z,4.86
2023-02-08T14:39:09.730Z,4.86
2023-02-08T14:41:57.233Z,4.87
2023-02-08T14:44:59.087Z,4.86
2023-02-08T14:47:54.444Z,4.90
2023-02-08T14:50:26.539Z,4.91
2023-02-08T14:53:00.385Z,4.91
2023-02-08T14:55:28.897Z,4.90
2023-02-08T14:58:00.554Z,4.93
2023-02-08T15:00:33.545Z,4.92
2023-02-08T15:03:05.141Z,4.92
2023-02-08T15:05:41.773Z,4.92
2023-02-08T15:08:09.800Z,4.91
2023-02-08T15:10:44.924Z,4.92
2023-02-08T15:13:20.934Z,4.94
2023-02-08T15:15:54.764Z,4.94
2023-02-08T15:18:25.586Z,4.92
2023-02-08T15:21:03.086Z,4.93
2023-02-08T15:23:31.630Z,4.93
2023-02-08T15:26:01.413Z,4.91
2023-02-08T15:28:31.041Z,4.93
2023-02-08T15:31:01.575Z,4.93
2023-02-08T15:33:30.868Z,4.96
2023-02-08T15:36:02.433Z,4.98
2023-02-08T15:38:31.442Z,4.98
2023-02-08T15:41:05.526Z,4.97
2023-02-08T15:43:34.419Z,4.96
2023-02-08T15:46:05.233Z,4.95
2023-02-08T15:48:36.977Z,4.95
2023-02-08T15:51:08.243Z,4.96
2023-02-08T15:53:45.602Z,4.95
2023-02-08T15:56:27.014Z,4.94
2023-02-08T15:59:05.293Z,4.92
2023-02-08T16:01:33.290Z,4.92
2023-02-08T16:04:06.098Z,4.89
2023-02-08T16:06:39.969Z,4.90
2023-02-08T16:09:08.148Z,4.91
2023-02-08T16:11:37.406Z,4.91
2023-02-08T16:14:07.808Z,4.89
2023-02-08T16:16:41.839Z,4.89
2023-02-08T16:19:26.009Z,4.86
2023-02-08T16:21:54.259Z,4.82
2023-02-08T16:24:27.507Z,4.82
2023-02-08T16:27:03.502Z,4.79
2023-02-08T16:29:33.965Z,4.76
2023-02-08T16:32:11.182Z,4.74
2023-02-08T16:34:42.547Z,4.69
2023-02-08T16:37:24.302Z,4.65
2023-02-08T16:39:53.657Z,4.59
2023-02-08T16:42:30.993Z,4.53
2023-02-08T16:45:30.144Z,4.49
2023-02-08T16:48:04.234Z,4.46
2023-02-08T16:50:42.751Z,4.40
2023-02-08T16:53:13.483Z,4.34
2023-02-08T16:55:41.307Z,4.27
2023-02-08T16:58:16.080Z,4.20
2023-02-08T17:00:45.401Z,4.14
2023-02-08T17:03:13.429Z,4.05
2023-02-08T17:05:46.476Z,3.98
2023-02-08T17:08:17.379Z,3.92
2023-02-08T17:10:46.105Z,3.84
2023-02-08T17:13:20.236Z,3.78
2023-02-08T17:15:50.320Z,3.70
2023-02-08T17:18:18.155Z,3.65
2023-02-08T17:20:48.015Z,3.59
2023-02-08T17:23:16.488Z,3.53
2023-02-08T17:25:44.849Z,3.48
2023-02-08T17:28:18.264Z,3.42
2023-02-08T17:30:47.149Z,3.38
2023-02-08T17:33:18.402Z,3.32
2023-02-08T17:35:49.287Z,3.28
2023-02-08T17:38:17.519Z,3.23
2023-02-08T17:40:45.911Z,3.19
2023-02-08T17:43:14.501Z,3.15
2023-02-08T17:45:44.937Z,3.12
2023-02-08T17:48:14.322Z,3.11
2023-02-08T17:50:43.960Z,3.10
2023-02-08T17:53:13.939Z,3.05
2023-02-08T17:55:43.325Z,2.99
2023-02-08T17:58:11.394Z,2.94
2023-02-08T18:00:39.735Z,2.89
2023-02-08T18:03:07.507Z,2.84
2023-02-08T18:05:35.434Z,2.79
2023-02-08T18:08:03.584Z,2.72
2023-02-08T18:10:35.582Z,2.65
2023-02-08T18:13:03.348Z,2.58
2023-02-08T18:15:31.130Z,2.50
2023-02-08T18:17:58.932Z,2.47
2023-02-08T18:20:26.643Z,2.44
2023-02-08T18:22:54.435Z,2.42
2023-02-08T18:25:22.226Z,2.40
2023-02-08T18:27:51.668Z,2.40
2023-02-08T18:30:20.343Z,2.39
2023-02-08T18:32:48.281Z,2.38
2023-02-08T18:35:16.057Z,2.36
2023-02-08T18:37:43.950Z,2.33
2023-02-08T18:40:12.872Z,2.31
2023-02-08T18:42:40.648Z,2.30
2023-02-08T18:45:10.970Z,2.29
2023-02-08T18:47:39.884Z,2.28
2023-02-08T18:50:09.142Z,2.27
2023-02-08T18:52:36.956Z,2.24
2023-02-08T18:55:05.173Z,2.22
2023-02-08T18:57:32.982Z,2.18
2023-02-08T19:00:00.806Z,2.21
2023-02-08T19:02:31.369Z,2.20
2023-02-08T19:04:59.124Z,2.18
2023-02-08T19:07:26.914Z,2.15
2023-02-08T19:09:54.823Z,2.10
2023-02-08T19:12:22.798Z,2.04
2023-02-08T19:14:51.948Z,2.00
2023-02-08T19:17:20.095Z,1.97
2023-02-08T19:19:49.510Z,1.95
2023-02-08T19:22:17.358Z,1.92
2023-02-08T19:24:45.190Z,1.90
2023-02-08T19:27:13.052Z,1.85
2023-02-08T19:29:41.234Z,1.82
2023-02-08T19:32:09.223Z,1.79
2023-02-08T19:34:37.099Z,1.74
2023-02-08T19:37:06.382Z,1.74
2023-02-08T19:39:34.259Z,1.71
2023-02-08T19:42:02.122Z,1.67
2023-02-08T19:44:30.723Z,1.65
2023-02-08T19:46:58.987Z,1.63
2023-02-08T19:49:28.340Z,1.60
2023-02-08T19:51:56.898Z,1.59
2023-02-08T19:54:26.055Z,1.57
2023-02-08T19:56:54.956Z,1.55
2023-02-08T19:59:24.817Z,1.52
2023-02-08T20:01:52.964Z,1.51
2023-02-08T20:04:21.571Z,1.48
2023-02-08T20:06:52.825Z,1.46
2023-02-08T20:09:20.953Z,1.43
2023-02-08T20:11:57.233Z,1.41
2023-02-08T20:14:26.068Z,1.39
2023-02-08T20:16:54.053Z,1.37
2023-02-08T20:19:21.873Z,1.33
2023-02-08T20:21:49.851Z,1.29
2023-02-08T20:24:18.079Z,1.26
2023-02-08T20:26:47.137Z,1.25
2023-02-08T20:29:16.887Z,1.23
2023-02-08T20:31:47.958Z,1.20
2023-02-08T20:34:17.289Z,1.16
2023-02-08T20:36:57.519Z,1.16
2023-02-08T20:39:33.339Z,1.11
2023-02-08T20:42:01.127Z,1.08
2023-02-08T20:44:31.540Z,1.05
2023-02-08T20:46:59.483Z,1.02
2023-02-08T20:49:27.340Z,1.00
2023-02-08T20:51:55.894Z,0.99
2023-02-08T20:54:24.990Z,0.96
2023-02-08T20:56:54.103Z,0.95
2023-02-08T20:59:22.000Z,0.96
2023-02-08T21:01:51.297Z,0.94
2023-02-08T21:04:20.381Z,0.93
2023-02-08T21:06:48.265Z,0.91
2023-02-08T21:09:18.687Z,0.89
2023-02-08T21:11:47.207Z,0.86
2023-02-08T21:14:18.995Z,0.85
2023-02-08T21:16:47.873Z,0.85
2023-02-08T21:19:17.528Z,0.83
2023-02-08T21:21:45.349Z,0.82
2023-02-08T21:24:13.179Z,0.78
2023-02-08T21:26:40.999Z,0.77
2023-02-08T21:29:08.916Z,0.74
2023-02-08T21:31:37.735Z,0.72
2023-02-08T21:34:06.269Z,0.70
2023-02-08T21:36:36.058Z,0.68
2023-02-08T21:39:04.602Z,0.66
2023-02-08T21:41:34.333Z,0.66
2023-02-08T21:44:04.398Z,0.66
2023-02-08T21:46:33.209Z,0.65
2023-02-08T21:49:18.959Z,0.65
2023-02-08T21:52:05.690Z,0.63
2023-02-08T21:54:44.751Z,0.62
2023-02-08T21:57:16.123Z,0.59
2023-02-08T21:59:44.172Z,0.56
2023-02-08T22:02:16.128Z,0.54
2023-02-08T22:05:01.302Z,0.50
2023-02-08T22:07:30.957Z,0.47
2023-02-08T22:09:59.104Z,0.43
2023-02-08T22:12:26.892Z,0.41
2023-02-08T22:14:54.662Z,0.36
2023-02-08T22:17:22.513Z,0.34
2023-02-08T22:19:50.341Z,0.29
2023-02-08T22:22:18.128Z,0.28
2023-02-08T22:24:47.274Z,0.26
2023-02-08T22:27:15.080Z,0.25
2023-02-08T22:29:42.873Z,0.24
2023-02-08T22:32:12.534Z,0.22
2023-02-08T22:34:40.410Z,0.18
2023-02-08T22:37:08.159Z,0.17
2023-02-08T22:39:36.003Z,0.14
2023-02-08T22:42:08.639Z,0.14
2023-02-08T22:44:36.821Z,0.14
2023-02-08T22:47:06.375Z,0.12
2023-02-08T22:49:34.294Z,0.13
2023-02-08T22:52:02.268Z,0.13
2023-02-08T22:54:30.127Z,0.13
2023-02-08T22:56:58.123Z,0.13
2023-02-08T22:59:27.307Z,0.12
2023-02-08T23:01:55.131Z,0.10
2023-02-08T23:04:22.985Z,0.08
2023-02-08T23:06:53.966Z,0.05
2023-02-08T23:09:21.966Z,0.05
2023-02-08T23:11:49.711Z,0.04
2023-02-08T23:14:17.686Z,0.01
2023-02-08T23:16:46.896Z,-0.01
2023-02-08T23:19:15.734Z,-0.03
2023-02-08T23:21:43.570Z,-0.04
2023-02-08T23:24:12.051Z,-0.04
2023-02-08T23:26:40.569Z,-0.03
2023-02-08T23:29:08.389Z,-0.02
2023-02-08T23:31:36.255Z,-0.03
2023-02-08T23:34:05.441Z,-0.05
2023-02-08T23:36:33.549Z,-0.06
2023-02-08T23:39:03.315Z,-0.07
2023-02-08T23:41:31.119Z,-0.08
2023-02-08T23:43:58.926Z,-0.11
2023-02-08T23:46:28.648Z,-0.13
2023-02-08T23:48:56.571Z,-0.14
2023-02-08T23:51:26.623Z,-0.15
2023-02-08T23:53:55.269Z,-0.16
2023-02-08T23:56:24.444Z,-0.18
2023-02-08T23:58:55.393Z,-0.18
